Have a Safe July 4th! 

Flight Track Log - Related Links

Times and Time Zones

All times are in EDT time to prevent confusion due to time zone crossing. See the SWA508 flight status page for this flight to view local times or setup timezone preferences in your user account.

Time Position Orientation Groundspeed Altitude Reporting Facility
EDT Latitude Longitude Course Direction KTS MPH feet Rate Location/Type
Mon 11:08:45 AM 40.5194 -80.4956 286° West 220 253 10,100  Level Cleveland Center
Mon 11:09:45 AM 40.5403 -80.5831 287° West 233 268 12,300 2,400 Climbing Cleveland Center
Mon 11:10:45 AM 40.5675 -80.6950 288° West 280 322 14,900 2,800 Climbing Cleveland Center
Mon 11:11:00 AM 40.6247 -80.8823 288° West  Level FlightAware Approximate
Mon 11:11:45 AM 40.5986 -80.8183 288° West 327 376 17,900  Level Cleveland Center
Mon 11:12:00 AM 40.6390 -80.9949 285° West  Level FlightAware Approximate
Mon 11:12:45 AM 40.6272 -80.9414 287° West 347 399 20,900  Level Cleveland Center
Mon 11:13:00 AM 40.6619 -81.1063 286° West  Level FlightAware Approximate
Mon 11:13:45 AM 40.6436 -81.0811 279° West 369 425 23,200  Level Cleveland Center
Mon 11:14:00 AM 40.6854 -81.2176 286° West  Level FlightAware Approximate
Mon 11:14:45 AM 40.6553 -81.2236 276° West 396 456 25,500  Level Cleveland Center
Mon 11:15:45 AM 40.6628 -81.3714 274° West 407 468 27,400 2,150 Climbing Cleveland Center
Mon 11:16:45 AM 40.6658 -81.5219 272° West 407 468 29,800 2,150 Climbing Cleveland Center
Mon 11:17:45 AM 40.6706 -81.6864 272° West 407 468 31,700 1,100 Climbing Cleveland Center
Mon 11:18:45 AM 40.7003 -81.8264 286° West 407 468 32,000 150 Climbing Cleveland Center
Mon 11:19:45 AM 40.7300 -81.9639 286° West 399 459 32,000  Level Cleveland Center
Mon 11:20:45 AM 40.7594 -82.1017 286° West 399 459 32,000  Level Cleveland Center
Mon 11:21:45 AM 40.7889 -82.2367 286° West 399 459 32,000  Level Cleveland Center
Mon 11:22:45 AM 40.8181 -82.3747 286° West 394 453 32,000  Level Cleveland Center
Mon 11:23:45 AM 40.8433 -82.4961 285° West 394 453 32,000  Level Cleveland Center
Mon 11:24:45 AM 40.8719 -82.6369 285° West 394 453 32,000  Level Cleveland Center
Mon 11:25:45 AM 40.9008 -82.7725 286° West 394 453 32,000  Level Cleveland Center
Mon 11:26:45 AM 40.9294 -82.9083 286° West 394 453 32,000  Level Cleveland Center
Mon 11:27:45 AM 40.9556 -83.0467 284° West 388 447 32,000  Level Cleveland Center
Mon 11:28:45 AM 40.9881 -83.1825 288° West 388 447 32,000  Level Cleveland Center
Mon 11:29:45 AM 41.0142 -83.3186 284° West 383 441 32,000  Level Cleveland Center
Mon 11:30:45 AM 41.0422 -83.4492 286° West 372 428 32,000  Level Cleveland Center
Mon 11:31:45 AM 41.0678 -83.5853 284° West 372 428 32,000  Level Cleveland Center
Mon 11:32:45 AM 41.0953 -83.7325 284° West 377 434 32,000  Level Cleveland Center
Mon 11:33:45 AM 41.1169 -83.8522 284° West 377 434 32,000  Level Cleveland Center
Mon 11:34:45 AM 41.1481 -83.9972 286° West 377 434 32,000 -415 Level Cleveland Center
Mon 11:35:55 AM 41.1742 -84.1261 285° West 368 423 31,100 -916 Descending Chicago Center
Mon 11:36:56 AM 41.2047 -84.2842 284° West 369 425 30,000 -537 Descending Chicago Center
Mon 11:37:58 AM 41.2300 -84.4131 285° West 363 418 30,000  Level Chicago Center
Mon 11:39:00 AM 41.2550 -84.5456 284° West 367 422 30,000  Level Chicago Center
Mon 11:40:02 AM 41.2792 -84.6769 284° West 368 423 30,000  Level Chicago Center
Mon 11:41:04 AM 41.3042 -84.8069 284° West 364 419 30,000  Level Chicago Center
Mon 11:42:06 AM 41.3281 -84.9386 284° West 366 421 30,000 -581 Level Chicago Center
Mon 11:43:08 AM 41.3581 -85.0972 284° West 369 425 28,800 -1,694 Descending Chicago Center
Mon 11:44:10 AM 41.3806 -85.2239 283° West 358 412 26,500 -2,177 Descending Chicago Center
Mon 11:45:12 AM 41.4042 -85.3486 284° West 348 400 24,300 -1,548 Descending Chicago Center
Mon 11:46:14 AM 41.4261 -85.4717 283° West 340 391 23,300 -968 Descending Chicago Center
Mon 11:47:16 AM 41.4483 -85.5969 283° West 343 395 22,300 -968 Descending Chicago Center
Mon 11:48:18 AM 41.4703 -85.7192 284° West 337 388 21,300 -1,113 Descending Chicago Center
Mon 11:49:20 AM 41.4914 -85.8397 283° West 331 381 20,000 -1,548 Descending Chicago Center
Mon 11:50:22 AM 41.5119 -85.9547 283° West 320 368 18,100 -1,887 Descending Chicago Center
Mon 11:51:24 AM 41.5247 -86.0700 278° West 317 365 16,100 -2,081 Descending Chicago Center
Mon 11:52:26 AM 41.5242 -86.2072 270° West 307 353 13,800 -2,000 Descending Chicago Center
Mon 11:53:27 AM 41.5228 -86.3181 269° West 297 342 12,000 -1,463 Descending Chicago Center
Mon 11:54:29 AM 41.5228 -86.4264 270° West 291 335 10,800 -968 Descending Chicago Center
Mon 11:55:31 AM 41.5219 -86.5353 269° West 293 337 10,000 -387 Descending Chicago Center
Mon 11:56:33 AM 41.5200 -86.6447 269° West 295 339 10,000  Level Chicago Center
Mon 11:57:35 AM 41.5200 -86.7669 270° West 300 345 10,000  Level Chicago Center
Mon 11:58:37 AM 41.5197 -86.8731 270° West 288 331 10,000 -629 Level Chicago Center
Mon 11:59:39 AM 41.5175 -86.9672 268° West 260 299 8,700 -1,500 Descending Chicago Center
Mon 12:00:41 PM 41.5169 -87.0869 270° West 268 308 6,900 -1,317 Descending Chicago Center
Mon 12:01:42 PM 41.5414 -87.1731 291° West 257 296 6,000 -936 Descending Chicago Center
Mon 12:02:30 PM 41.5667 -87.2500 294° West 254 292 5,200 -778 Descending Chicago TRACON
Mon 12:03:30 PM 41.5833 -87.3333 285° West 249 287 4,600 -300 Descending Chicago TRACON
Mon 12:04:30 PM 41.6167 -87.4167 298° West 246 283 4,600  Level Chicago TRACON
Mon 12:04:48 PM 41.6181 -87.4300 278° West 248 285 4,600 -450 Level Chicago Center
Mon 12:05:50 PM 41.6428 -87.5136 292° West 246 283 4,000 -484 Descending Chicago Center
Mon 12:06:52 PM 41.6753 -87.5964 298° West 231 266 3,600 -720 Descending Chicago Center
Mon 12:07:30 PM 41.7000 -87.6333 312° West 187 215 2,800 -918 Descending Chicago TRACON
Mon 12:08:30 PM 41.7333 -87.6667 323° Northwest 151 174 2,100 -700 Descending Chicago TRACON
Mon 12:09:30 PM 41.7500 -87.7167 294° West 131 151 1,400 -700 Descending Chicago TRACON
Mon 12:12:00 PM 41.7833 -87.7500 North  Level FlightAware Approximate

Login

Don't have an account? Register now (free) for customized features, flight alerts, and more!